Northwest Arkansas Regional Airport
KXNA : now visible

Airfield :











YOU CAN JOIN US ON...

 
LOGIN :

Register | Disclaimer

   EN    FR    IT 

 









Legend :    VFR   Marginal VFR   IFR   Intensive IFR   Very Intensive IFR
Visi :
Ceiling :
>= 8 km
>= 3000ft
5 to 8 km
1000 to 3000 ft
1500m to 5 km
500 to 1000 ft
800 to 1500m
200 to 500 ft
< 800m
< 200 ft
Symbols :   Thunderstorms  Fog  Heavy snow  Heavy precipitations  Wind > 20 kt






- Airport Elevation : 1287 ft


KXNA - Northwest Arkansas Regional

CURRENT METAR :
  • 221653Z 29016G22KT 10SM CLR 15/M01 A3013 RMK AO2 SLP200 T01501006

EXPIRED METARs :
  • 221553Z 28010G19KT 10SM CLR 13/00 A3013 RMK AO2 SLP202 T01330000
  • 221453Z 29009KT 10SM CLR 11/M01 A3014 RMK AO2 SLP203 T01061011 53016

TAF KXNA
Valid from the 22 at 12:00 until the 23 at 12:00 UTC


221120Z 2212/2312 28007KT P6SM SKC
FM221500 27013G19KT P6SM SKC
FM230000 20003KT P6SM SKC



MET'MAP, your aeronautical weather chart ! - Copyright ORBIFLY December 2007 - Disclaimer

ORBIFLY MET'MAP TEAM :

Programming & Development : Alexandra Zaïnal
Concept & Development : Baudouin d'Aumeries
Co-Development & Prog : Marc-Olivier Méhu
Technical & hardware support : Manuel Goepfert

Contact : metmap@orbifly.com




SOURCES & CREDITS :

   NOAA       Earth
Advisory